Weather & Traffic



KLGB 030953Z 16003KT 9SM CLR 21/18 A2987 RMK AO2 SLP113 T02110178


TAF AMD KLGB 031010Z 0310/0406 VRB03KT P6SM SKC FM031100 VRB03KT P6SM OVC012 FM031700 16005KT P6SM SCT015 FM032200 21008KT P6SM SKC